ADDS TAF Data INFO
IDs: Format: Raw Decoded Include METARs

Data at: 0853 UTC 19 Nov 2017

KFST 190753Z AUTO 16007KT 10SM CLR 04/M07 A3036 RMK AO2 SLP258 T00441067

KFST 190526Z 1906/2006 13007KT P6SM FEW250